Time;durP1;ratioP1;P1;durP2;ratioP2;P2;SDS_P1;SDS_P2;PMS_P1;PMS_P2;Temp;Humidity;BMP_temperature;BMP_pressure;BME280_temperature;BME280_humidity;BME280_pressure;Samples;Min_cycle;Max_cycle;Signal;HPM_P1;HPM_P2
2022/06/23 00:01:33;;;;;;;17.35;12.43;;;20.40;99.90;;;;;;4999947;28;20023;-66
2022/06/23 00:03:59;;;;;;;17.48;13.10;;;20.40;99.90;;;;;;4983390;28;20030;-67
2022/06/23 00:06:44;;;;;;;15.27;11.90;;;20.40;99.90;;;;;;5009096;28;20028;-65
2022/06/23 00:09:58;;;;;;;17.13;13.13;;;20.30;99.90;;;;;;5017880;28;20025;-65
2022/06/23 00:12:30;;;;;;;19.35;12.65;;;20.40;99.90;;;;;;5007083;28;20045;-65
2022/06/23 00:14:59;;;;;;;16.75;12.45;;;20.40;99.90;;;;;;5010282;28;20025;-65
2022/06/23 00:18:00;;;;;;;17.95;12.77;;;20.30;99.90;;;;;;5017480;28;20022;-66
2022/06/23 00:20:50;;;;;;;17.35;12.85;;;20.30;99.90;;;;;;5018720;28;20040;-65
2022/06/23 00:23:32;;;;;;;15.43;11.95;;;20.20;99.90;;;;;;5023406;28;20086;-65
2022/06/23 00:26:22;;;;;;;17.23;12.85;;;20.20;99.90;;;;;;4984268;28;20213;-66
2022/06/23 00:29:04;;;;;;;17.55;13.25;;;20.20;99.90;;;;;;4968013;28;20037;-65
2022/06/23 00:31:38;;;;;;;17.05;13.15;;;20.20;99.90;;;;;;5013381;28;20029;-65
2022/06/23 00:34:21;;;;;;;20.85;12.90;;;20.20;99.90;;;;;;5006527;28;20097;-66
2022/06/23 00:37:15;;;;;;;17.27;11.68;;;20.20;99.90;;;;;;5023284;28;20048;-66
2022/06/23 00:39:43;;;;;;;17.98;13.55;;;20.20;99.90;;;;;;5021858;28;20252;-65
2022/06/23 00:42:34;;;;;;;17.63;12.13;;;20.10;99.90;;;;;;5010868;28;20065;-65
2022/06/23 00:45:10;;;;;;;15.20;11.90;;;20.10;99.90;;;;;;4987483;28;20106;-65
2022/06/23 00:47:59;;;;;;;17.10;12.75;;;20.10;99.90;;;;;;5002064;28;20027;-66
2022/06/23 00:50:47;;;;;;;18.33;12.50;;;20.10;99.90;;;;;;5003488;28;20195;-65
2022/06/23 00:53:13;;;;;;;14.45;12.05;;;20.00;99.90;;;;;;4988257;28;20061;-65
2022/06/23 00:55:58;;;;;;;17.83;12.63;;;20.00;99.90;;;;;;5003210;28;20034;-65
2022/06/23 00:58:50;;;;;;;19.13;12.57;;;20.00;99.90;;;;;;5002139;28;20034;-66
2022/06/23 01:01:44;;;;;;;16.92;13.25;;;19.90;99.90;;;;;;5003286;28;20022;-66
2022/06/23 01:04:22;;;;;;;17.70;12.27;;;19.90;99.90;;;;;;4996435;28;20026;-66
2022/06/23 01:07:07;;;;;;;16.80;12.88;;;19.80;99.90;;;;;;5002060;28;20093;-66
2022/06/23 01:09:44;;;;;;;18.40;12.68;;;19.80;99.90;;;;;;5001734;28;20260;-65
2022/06/23 01:12:36;;;;;;;17.08;13.65;;;19.70;99.90;;;;;;4989351;28;20089;-66
2022/06/23 01:15:11;;;;;;;17.15;13.10;;;19.60;99.90;;;;;;4982331;28;20026;-65
2022/06/23 01:17:41;;;;;;;14.82;12.18;;;19.70;99.90;;;;;;4967677;28;20098;-66
2022/06/23 01:20:28;;;;;;;20.08;13.25;;;19.60;99.90;;;;;;4977224;28;20333;-65
2022/06/23 01:23:24;;;;;;;17.83;12.93;;;19.60;99.90;;;;;;5001582;28;20105;-66
2022/06/23 01:26:00;;;;;;;17.90;13.43;;;19.70;99.90;;;;;;5004793;28;20328;-66
2022/06/23 01:28:28;;;;;;;16.08;12.45;;;19.60;99.90;;;;;;5001708;28;20041;-66
2022/06/23 01:31:19;;;;;;;16.85;12.55;;;19.60;99.90;;;;;;4985951;28;20022;-66
2022/06/23 01:34:17;;;;;;;17.75;13.10;;;19.60;99.90;;;;;;5003995;28;20022;-66
2022/06/23 01:36:48;;;;;;;16.15;12.10;;;19.60;99.90;;;;;;4993428;28;20232;-66
2022/06/23 01:39:41;;;;;;;19.38;11.70;;;19.60;99.90;;;;;;4990012;28;20019;-65
2022/06/23 01:42:22;;;;;;;18.48;13.52;;;19.50;99.90;;;;;;4971700;28;20085;-65
2022/06/23 01:45:04;;;;;;;19.25;12.98;;;19.50;99.90;;;;;;4967124;28;20066;-65
2022/06/23 01:47:50;;;;;;;21.45;15.13;;;19.40;99.90;;;;;;4967356;28;20273;-66
2022/06/23 01:50:27;;;;;;;18.17;14.60;;;19.30;99.90;;;;;;4994919;28;20026;-65
2022/06/23 01:53:25;;;;;;;21.13;14.07;;;19.20;99.90;;;;;;4982183;28;20273;-66
2022/06/23 01:55:59;;;;;;;20.60;14.32;;;19.10;99.90;;;;;;4982091;28;20019;-65
2022/06/23 01:58:26;;;;;;;19.67;14.38;;;19.00;99.90;;;;;;4982097;28;20026;-66
2022/06/23 02:00:55;;;;;;;21.80;14.90;;;18.90;99.90;;;;;;4981983;28;20070;-66
2022/06/23 02:03:33;;;;;;;20.45;15.35;;;18.90;99.90;;;;;;4981810;28;20025;-66
2022/06/23 02:06:11;;;;;;;19.02;15.00;;;18.80;99.90;;;;;;4951823;28;20022;-66
2022/06/23 02:13:02;;;;;;;20.00;16.60;;;18.70;99.90;;;;;;4993483;28;20593;-66
2022/06/23 02:16:14;;;;;;;25.00;16.15;;;18.60;99.90;;;;;;5000551;28;20289;-66
2022/06/23 02:18:56;;;;;;;20.92;15.40;;;18.60;99.90;;;;;;5000057;28;20079;-67
2022/06/23 02:21:46;;;;;;;20.63;16.80;;;18.60;99.90;;;;;;5024452;28;20076;-67
2022/06/23 02:24:23;;;;;;;22.13;16.58;;;18.60;99.90;;;;;;5020317;28;20022;-66
2022/06/23 02:27:20;;;;;;;22.92;16.13;;;18.60;99.90;;;;;;5025797;28;20450;-66
2022/06/23 02:30:10;;;;;;;21.90;17.02;;;18.60;99.90;;;;;;5024664;28;20038;-66
2022/06/23 02:32:58;;;;;;;19.40;15.25;;;18.60;99.90;;;;;;5024541;28;20025;-68
2022/06/23 02:35:25;;;;;;;28.17;16.90;;;18.60;99.90;;;;;;5024551;28;20026;-66
2022/06/23 02:37:54;;;;;;;21.67;16.10;;;18.60;99.90;;;;;;5024405;28;20284;-66
2022/06/23 02:40:42;;;;;;;20.80;16.58;;;18.70;99.90;;;;;;5024248;28;20029;-67
2022/06/23 02:43:25;;;;;;;25.65;16.00;;;18.70;99.90;;;;;;5006927;28;20050;-67
2022/06/23 02:46:34;;;;;;;21.65;16.50;;;18.80;99.90;;;;;;5004151;28;20030;-66
2022/06/23 02:49:22;;;;;;;23.50;16.38;;;18.80;99.90;;;;;;5007662;28;20030;-66
2022/06/23 02:52:13;;;;;;;19.52;15.93;;;18.80;99.90;;;;;;4985641;28;20241;-66
2022/06/23 02:54:54;;;;;;;21.27;16.17;;;18.80;99.90;;;;;;5021686;28;20023;-66
2022/06/23 02:57:32;;;;;;;18.75;14.98;;;18.80;99.90;;;;;;5013939;28;20024;-66
2022/06/23 03:00:21;;;;;;;21.50;14.95;;;18.80;99.90;;;;;;5025262;28;20018;-65
2022/06/23 03:03:30;;;;;;;20.77;16.10;;;18.80;99.90;;;;;;5009979;28;20046;-67
2022/06/23 03:06:06;;;;;;;25.08;17.73;;;18.80;99.90;;;;;;5023988;28;20061;-66
2022/06/23 03:08:56;;;;;;;20.15;15.82;;;18.70;99.90;;;;;;5008229;28;20032;-66
2022/06/23 03:11:52;;;;;;;21.13;16.30;;;18.60;99.90;;;;;;5021794;28;20034;-66
2022/06/23 03:14:42;;;;;;;22.00;16.08;;;18.60;99.90;;;;;;5006526;28;20025;-67
2022/06/23 03:17:24;;;;;;;20.38;15.82;;;18.60;99.90;;;;;;5024966;28;20029;-66
2022/06/23 03:20:13;;;;;;;18.33;14.88;;;18.60;99.90;;;;;;4993117;28;20036;-66
2022/06/23 03:22:47;;;;;;;19.73;14.93;;;18.70;99.90;;;;;;5021306;28;20045;-66
2022/06/23 03:25:27;;;;;;;20.95;15.90;;;18.60;99.90;;;;;;4980894;28;20125;-67
2022/06/23 03:28:13;;;;;;;21.33;16.15;;;18.60;99.90;;;;;;4988730;28;20232;-66
2022/06/23 03:31:01;;;;;;;19.23;15.23;;;18.60;99.90;;;;;;4983507;28;20025;-66
2022/06/23 03:33:49;;;;;;;18.98;14.75;;;18.50;99.90;;;;;;5008077;28;20056;-66
2022/06/23 03:36:26;;;;;;;18.83;15.90;;;18.60;99.90;;;;;;5015189;28;20046;-67
2022/06/23 03:42:28;;;;;;;21.75;16.02;;;18.40;99.90;;;;;;5016326;28;20266;-66
2022/06/23 03:45:14;;;;;;;22.00;16.13;;;18.40;99.90;;;;;;5003428;28;20097;-66
2022/06/23 03:48:05;;;;;;;19.80;16.15;;;18.30;99.90;;;;;;5004522;28;20089;-67
2022/06/23 03:50:57;;;;;;;24.58;18.85;;;18.30;99.90;;;;;;4974394;28;20097;-67
2022/06/23 03:53:36;;;;;;;24.73;18.10;;;18.30;99.90;;;;;;5019980;28;20025;-67
2022/06/23 03:56:05;;;;;;;21.77;16.00;;;18.20;99.90;;;;;;4991622;28;20068;-66
2022/06/23 03:58:56;;;;;;;22.08;17.58;;;18.20;99.90;;;;;;4990561;28;20025;-66
2022/06/23 04:01:46;;;;;;;21.67;16.23;;;18.20;99.90;;;;;;5006792;28;20022;-66
2022/06/23 04:04:18;;;;;;;22.33;18.10;;;18.20;99.90;;;;;;5000603;28;20101;-66
2022/06/23 04:06:48;;;;;;;19.58;16.42;;;18.20;99.90;;;;;;5008266;28;20034;-66
2022/06/23 04:09:34;;;;;;;21.25;16.42;;;18.20;99.90;;;;;;5023669;28;20036;-67
2022/06/23 04:12:24;;;;;;;21.10;17.30;;;18.30;99.90;;;;;;5007470;28;20015;-66
2022/06/23 04:15:23;;;;;;;21.02;16.75;;;18.30;99.90;;;;;;4986047;28;20050;-66
2022/06/23 04:17:56;;;;;;;20.13;16.38;;;18.30;99.90;;;;;;4987732;28;20122;-66
2022/06/23 04:20:47;;;;;;;22.05;17.50;;;18.40;99.90;;;;;;5005710;28;20355;-65
2022/06/23 04:23:26;;;;;;;20.63;16.05;;;18.40;99.90;;;;;;5012614;28;20037;-66
2022/06/23 04:26:14;;;;;;;21.30;17.80;;;18.40;99.90;;;;;;5008521;28;20041;-66
2022/06/23 04:28:44;;;;;;;21.25;17.15;;;18.40;99.90;;;;;;5006917;28;20045;-66
2022/06/23 04:31:34;;;;;;;21.75;17.45;;;18.40;99.90;;;;;;5013707;28;20033;-66
2022/06/23 04:34:01;;;;;;;23.63;17.70;;;18.40;99.90;;;;;;5012388;28;20106;-66
2022/06/23 04:36:30;;;;;;;22.65;18.02;;;18.50;99.90;;;;;;5004534;28;20072;-66
2022/06/23 04:39:16;;;;;;;20.27;16.98;;;18.40;99.90;;;;;;4995916;28;20237;-66
2022/06/23 04:42:07;;;;;;;21.85;18.55;;;18.50;99.90;;;;;;5014033;28;20029;-66
2022/06/23 04:44:34;;;;;;;22.23;18.10;;;18.50;99.90;;;;;;5008873;28;20042;-66
2022/06/23 04:47:21;;;;;;;22.98;17.98;;;18.50;99.90;;;;;;4986437;28;20026;-66
2022/06/23 04:49:55;;;;;;;20.33;17.77;;;18.50;99.90;;;;;;5000998;28;20080;-66
2022/06/23 04:52:29;;;;;;;22.08;18.35;;;18.50;99.90;;;;;;4967359;28;20037;-66
2022/06/23 04:55:13;;;;;;;22.13;17.80;;;18.60;99.90;;;;;;4989841;28;20041;-66
2022/06/23 04:57:45;;;;;;;22.65;18.02;;;18.60;99.90;;;;;;4988210;28;20097;-66
2022/06/23 05:00:53;;;;;;;22.52;17.70;;;18.70;99.90;;;;;;5011256;28;20076;-66
2022/06/23 05:03:37;;;;;;;21.38;18.42;;;18.70;99.90;;;;;;4963894;28;20041;-65
2022/06/23 05:06:38;;;;;;;22.05;18.63;;;18.80;99.90;;;;;;5016045;28;20240;-66
2022/06/23 05:09:18;;;;;;;22.73;18.75;;;18.80;99.90;;;;;;4999667;28;20034;-65
2022/06/23 05:11:51;;;;;;;23.77;19.52;;;18.90;99.90;;;;;;5001354;28;20018;-66
2022/06/23 05:14:53;;;;;;;26.27;19.13;;;18.90;99.90;;;;;;4990202;28;20030;-66
2022/06/23 05:17:22;;;;;;;24.58;19.35;;;18.90;99.90;;;;;;4950004;28;20317;-65
2022/06/23 05:19:48;;;;;;;21.13;18.42;;;19.00;99.90;;;;;;4982361;28;20054;-66
2022/06/23 05:22:20;;;;;;;23.03;19.80;;;19.00;99.90;;;;;;4998516;28;20041;-66
2022/06/23 05:24:46;;;;;;;23.50;19.58;;;19.10;99.90;;;;;;5007678;28;20042;-66
2022/06/23 05:27:24;;;;;;;22.98;20.10;;;19.10;99.90;;;;;;5013029;28;20053;-66
2022/06/23 05:30:14;;;;;;;23.10;19.33;;;19.10;99.90;;;;;;4997931;28;20053;-66
2022/06/23 05:32:45;;;;;;;25.38;20.48;;;19.20;99.90;;;;;;4995229;28;20038;-66
2022/06/23 05:35:25;;;;;;;27.05;20.33;;;19.20;99.90;;;;;;4982033;28;20054;-66
2022/06/23 05:38:08;;;;;;;24.30;19.38;;;19.20;99.90;;;;;;4996991;28;20207;-66
2022/06/23 05:40:39;;;;;;;22.33;18.13;;;19.30;99.90;;;;;;4996639;28;20038;-66
2022/06/23 05:43:08;;;;;;;23.63;19.23;;;19.30;99.90;;;;;;4992097;28;20070;-66
2022/06/23 05:45:43;;;;;;;24.77;19.08;;;19.40;99.90;;;;;;4997528;28;20026;-66
2022/06/23 05:48:15;;;;;;;25.73;19.90;;;19.40;99.90;;;;;;5014698;28;20038;-66
2022/06/23 05:50:52;;;;;;;26.10;21.05;;;19.40;99.90;;;;;;5014592;28;20318;-66
2022/06/23 05:54:00;;;;;;;26.00;21.67;;;19.40;99.90;;;;;;5002790;28;20022;-66
2022/06/23 05:56:38;;;;;;;27.05;20.63;;;19.40;99.90;;;;;;5005327;28;20022;-66
2022/06/23 05:59:15;;;;;;;26.20;20.55;;;19.50;99.90;;;;;;5006218;28;20360;-66
2022/06/23 06:01:55;;;;;;;31.13;23.73;;;19.50;99.90;;;;;;4989265;28;20022;-66
2022/06/23 06:04:29;;;;;;;29.42;23.60;;;19.60;99.90;;;;;;4985763;28;20106;-65
2022/06/23 06:06:55;;;;;;;28.80;23.30;;;19.60;99.90;;;;;;4970461;28;20037;-65
2022/06/23 06:09:36;;;;;;;35.77;25.47;;;19.60;99.90;;;;;;4985604;28;20505;-65
2022/06/23 06:12:43;;;;;;;27.15;21.70;;;19.70;99.90;;;;;;4991342;28;20029;-65
2022/06/23 06:15:30;;;;;;;26.83;20.48;;;19.70;99.90;;;;;;5002235;28;20062;-65
2022/06/23 06:18:20;;;;;;;30.13;21.70;;;19.80;99.90;;;;;;4988992;28;20085;-65
2022/06/23 06:20:46;;;;;;;26.17;20.00;;;19.90;99.90;;;;;;4990462;28;20049;-65
2022/06/23 06:23:38;;;;;;;26.13;19.37;;;20.00;99.90;;;;;;5005642;28;20034;-65
2022/06/23 06:26:04;;;;;;;24.48;19.45;;;20.10;99.90;;;;;;5005882;28;20042;-65
2022/06/23 06:28:32;;;;;;;24.02;20.20;;;20.10;99.90;;;;;;5005793;28;20053;-65
2022/06/23 06:31:22;;;;;;;23.50;17.48;;;20.20;99.90;;;;;;5006026;28;20198;-65
2022/06/23 06:34:02;;;;;;;26.73;19.70;;;20.30;99.90;;;;;;5005601;28;20018;-65
2022/06/23 06:36:39;;;;;;;25.10;17.90;;;20.40;99.90;;;;;;5004756;28;20061;-65
2022/06/23 06:39:27;;;;;;;24.75;17.50;;;20.50;99.90;;;;;;5005641;28;20380;-65
2022/06/23 06:42:02;;;;;;;19.70;16.63;;;20.50;99.90;;;;;;5004365;28;20062;-65
2022/06/23 06:44:29;;;;;;;20.02;15.50;;;20.60;99.90;;;;;;5004340;28;20326;-65
2022/06/23 06:46:55;;;;;;;26.42;18.27;;;20.60;99.90;;;;;;5005966;28;20089;-65
2022/06/23 06:49:23;;;;;;;27.85;19.45;;;20.70;99.90;;;;;;5005654;28;20023;-65
2022/06/23 06:51:50;;;;;;;26.75;20.35;;;20.70;99.90;;;;;;5004474;28;20030;-65
2022/06/23 06:54:50;;;;;;;24.10;16.30;;;20.80;99.90;;;;;;4988010;28;20042;-65
2022/06/23 06:57:23;;;;;;;12.63;7.65;;;20.80;99.90;;;;;;5005355;28;20049;-65
2022/06/23 07:00:05;;;;;;;11.85;6.50;;;20.90;99.90;;;;;;4988757;28;20034;-65
2022/06/23 07:02:43;;;;;;;12.05;7.20;;;21.00;99.90;;;;;;4989073;28;20026;-66
2022/06/23 07:05:50;;;;;;;12.68;7.13;;;21.10;99.90;;;;;;5003518;28;20246;-65
2022/06/23 07:08:37;;;;;;;15.95;7.60;;;21.20;99.90;;;;;;5004176;28;20085;-65
2022/06/23 07:11:27;;;;;;;12.02;7.38;;;21.20;99.90;;;;;;5005044;28;20252;-65
2022/06/23 07:14:05;;;;;;;10.77;5.30;;;21.30;99.60;;;;;;5003892;28;20093;-65
2022/06/23 07:17:17;;;;;;;10.50;6.25;;;21.40;99.00;;;;;;5004073;28;20035;-66
2022/06/23 07:19:50;;;;;;;12.75;6.32;;;21.40;99.00;;;;;;5004093;28;20022;-65
2022/06/23 07:22:27;;;;;;;13.90;6.45;;;21.50;98.80;;;;;;4988047;28;20420;-65
2022/06/23 07:25:19;;;;;;;11.25;6.40;;;21.60;99.10;;;;;;5003628;28;20109;-65
2022/06/23 07:28:00;;;;;;;11.52;4.75;;;21.60;99.50;;;;;;5003683;28;20041;-65
2022/06/23 07:30:57;;;;;;;14.15;4.65;;;21.70;98.00;;;;;;5003832;28;20317;-65
2022/06/23 07:33:37;;;;;;;8.98;3.83;;;21.80;98.30;;;;;;4973820;28;20040;-65
2022/06/23 07:36:29;;;;;;;8.88;4.45;;;21.90;97.30;;;;;;5003676;28;20365;-66
2022/06/23 07:39:12;;;;;;;12.10;5.78;;;21.90;97.00;;;;;;4976315;28;20030;-65
2022/06/23 07:41:58;;;;;;;11.63;4.10;;;22.00;97.00;;;;;;4971838;28;20286;-65
2022/06/23 07:44:38;;;;;;;6.03;3.00;;;22.10;96.30;;;;;;4988421;28;20041;-65
2022/06/23 07:47:04;;;;;;;8.43;3.55;;;22.10;96.20;;;;;;5003743;28;20029;-65
2022/06/23 07:49:31;;;;;;;7.27;3.50;;;22.20;95.60;;;;;;5003306;28;20030;-65
2022/06/23 07:51:57;;;;;;;7.18;2.50;;;22.20;95.50;;;;;;5003521;28;20077;-65
2022/06/23 07:54:23;;;;;;;9.73;2.83;;;22.30;94.80;;;;;;5003136;28;20018;-65
2022/06/23 07:56:49;;;;;;;9.52;3.28;;;22.30;94.70;;;;;;5003180;28;20221;-65
2022/06/23 07:59:19;;;;;;;7.00;3.20;;;22.30;94.40;;;;;;4987068;28;20030;-66
2022/06/23 08:02:04;;;;;;;8.20;4.10;;;22.40;94.50;;;;;;5004289;28;20033;-66
2022/06/23 08:04:38;;;;;;;9.05;4.05;;;22.50;94.60;;;;;;5004087;28;20018;-66
2022/06/23 08:07:06;;;;;;;9.02;3.70;;;22.50;95.00;;;;;;5003105;28;20325;-66
2022/06/23 08:09:46;;;;;;;14.98;7.32;;;22.60;94.50;;;;;;4971256;28;20038;-66
2022/06/23 08:18:32;;;;;;;10.05;4.43;;;22.90;93.90;;;;;;5001982;28;20025;-65
2022/06/23 08:21:10;;;;;;;10.10;5.25;;;23.10;93.70;;;;;;5002694;28;20026;-66
2022/06/23 08:23:41;;;;;;;6.90;4.38;;;23.20;93.80;;;;;;5002473;28;20471;-65
2022/06/23 08:26:07;;;;;;;8.05;3.30;;;23.30;93.20;;;;;;4994032;28;20262;-66
2022/06/23 08:28:33;;;;;;;;;;;23.30;91.80;;;;;;5002718;28;20033;-65
2022/06/23 08:30:59;;;;;;;8.43;4.03;;;23.30;92.20;;;;;;5002768;28;20203;-66
2022/06/23 08:33:26;;;;;;;8.10;4.13;;;23.30;92.50;;;;;;4986294;28;20026;-65
2022/06/23 08:35:52;;;;;;;8.45;3.75;;;23.40;92.40;;;;;;5002448;28;20034;-65
2022/06/23 08:38:44;;;;;;;5.57;3.20;;;23.50;92.50;;;;;;5002356;28;20317;-66
2022/06/23 08:41:29;;;;;;;8.57;3.67;;;23.60;92.30;;;;;;4974669;28;20053;-66
2022/06/23 08:44:07;;;;;;;7.10;3.67;;;23.70;90.90;;;;;;4982778;28;20057;-66
2022/06/23 08:46:46;;;;;;;4.68;2.70;;;23.80;90.90;;;;;;4982942;28;20324;-66
2022/06/23 08:49:48;;;;;;;5.47;2.53;;;23.80;89.80;;;;;;4989672;28;20033;-66
2022/06/23 08:52:57;;;;;;;8.13;3.78;;;23.90;90.10;;;;;;5003427;28;20030;-66
2022/06/23 08:55:29;;;;;;;5.50;3.25;;;24.00;90.20;;;;;;5002999;28;20329;-66
2022/06/23 08:58:07;;;;;;;5.97;3.80;;;24.10;90.70;;;;;;4986414;28;20030;-66
2022/06/23 09:00:55;;;;;;;12.35;4.72;;;24.10;90.00;;;;;;5003168;28;20026;-65
2022/06/23 09:03:28;;;;;;;7.55;4.88;;;24.10;89.70;;;;;;5001975;28;20343;-65
2022/06/23 09:06:08;;;;;;;5.50;4.00;;;24.10;89.70;;;;;;4986219;28;20332;-66
2022/06/23 09:09:14;;;;;;;6.65;3.22;;;24.10;89.70;;;;;;5001901;28;20057;-65
2022/06/23 09:12:18;;;;;;;7.93;3.63;;;24.20;89.00;;;;;;5001999;28;20054;-66
2022/06/23 09:15:18;;;;;;;9.23;4.60;;;24.20;89.20;;;;;;4983055;28;20387;-66
2022/06/23 09:18:06;;;;;;;7.10;3.83;;;24.20;89.70;;;;;;4983349;28;20261;-66
2022/06/23 09:20:59;;;;;;;7.97;3.30;;;24.30;89.60;;;;;;4982144;28;20019;-66
2022/06/23 09:23:59;;;;;;;7.45;3.78;;;24.30;88.80;;;;;;4976251;28;20030;-66
2022/06/23 09:26:51;;;;;;;9.18;4.50;;;24.40;89.60;;;;;;4983232;28;20022;-66
2022/06/23 09:30:04;;;;;;;5.32;3.70;;;24.40;88.60;;;;;;4982002;28;20050;-66
2022/06/23 09:32:43;;;;;;;8.23;4.00;;;24.50;88.00;;;;;;4974631;28;20031;-66
2022/06/23 09:35:26;;;;;;;6.80;3.65;;;24.60;88.70;;;;;;4982068;28;20090;-66
2022/06/23 09:38:11;;;;;;;5.93;4.25;;;24.60;88.20;;;;;;4981994;28;20026;-66
2022/06/23 09:41:25;;;;;;;8.23;3.85;;;24.70;87.90;;;;;;4965618;28;20038;-67
2022/06/23 09:44:18;;;;;;;6.00;3.60;;;24.70;88.50;;;;;;4996128;28;20026;-66
2022/06/23 09:47:02;;;;;;;6.43;3.08;;;24.60;90.30;;;;;;5001598;28;20042;-66
2022/06/23 09:49:38;;;;;;;10.93;4.15;;;24.60;86.80;;;;;;5002389;28;20023;-66
2022/06/23 09:53:27;;;;;;;6.32;3.00;;;24.70;86.30;;;;;;5001437;28;20232;-66
2022/06/23 09:56:13;;;;;;;4.32;2.70;;;24.80;86.40;;;;;;4919363;28;20063;-66
2022/06/23 09:58:45;;;;;;;6.15;2.58;;;25.00;85.50;;;;;;4982892;28;20098;-66
2022/06/23 10:01:25;;;;;;;6.35;2.72;;;25.10;86.50;;;;;;4982982;28;20069;-66
2022/06/23 10:04:37;;;;;;;6.72;3.15;;;25.30;84.20;;;;;;4966722;28;20233;-66
2022/06/23 10:07:09;;;;;;;4.95;2.63;;;25.50;82.80;;;;;;4981458;28;20030;-66
2022/06/23 10:10:07;;;;;;;6.88;2.60;;;25.60;83.10;;;;;;4982592;28;20054;-65
2022/06/23 10:12:38;;;;;;;;;;;25.60;82.00;;;;;;4985152;28;20034;-66
2022/06/23 10:15:08;;;;;;;6.90;3.22;;;25.60;81.40;;;;;;5002061;28;19921;-65
2022/06/23 10:18:05;;;;;;;8.50;2.75;;;25.80;81.40;;;;;;5002120;28;20037;-66
2022/06/23 10:20:45;;;;;;;4.90;2.58;;;25.80;81.10;;;;;;5001240;28;20030;-65
2022/06/23 10:23:50;;;;;;;3.35;2.33;;;25.90;81.40;;;;;;5000792;28;20139;-65
2022/06/23 10:26:41;;;;;;;3.85;2.65;;;26.10;80.80;;;;;;5001966;28;20077;-65
2022/06/23 10:29:41;;;;;;;7.68;2.63;;;26.30;79.00;;;;;;5001096;28;20360;-65
2022/06/23 10:32:31;;;;;;;5.53;1.98;;;26.30;78.50;;;;;;5002179;28;20026;-65
2022/06/23 10:35:21;;;;;;;3.67;2.20;;;26.20;76.20;;;;;;5000838;28;20257;-65
2022/06/23 10:38:23;;;;;;;6.45;2.75;;;26.20;76.30;;;;;;5001700;28;20093;-65
2022/06/23 10:40:49;;;;;;;6.82;2.58;;;26.20;76.50;;;;;;5002512;28;20034;-65
2022/06/23 10:43:29;;;;;;;6.50;2.17;;;26.20;77.10;;;;;;5005563;28;20286;-66
2022/06/23 10:46:32;;;;;;;9.60;2.45;;;26.20;76.60;;;;;;5005549;28;20078;-65
2022/06/23 10:49:33;;;;;;;7.00;2.80;;;26.30;76.50;;;;;;5005226;28;20053;-66
2022/06/23 10:52:26;;;;;;;8.45;2.22;;;26.50;76.30;;;;;;4952867;28;20044;-65
2022/06/23 10:55:02;;;;;;;4.55;2.30;;;26.60;77.20;;;;;;5005334;28;20194;-65
2022/06/23 10:58:13;;;;;;;6.73;2.47;;;26.70;73.40;;;;;;5004425;28;20033;-65
2022/06/23 11:01:55;;;;;;;4.05;2.30;;;26.70;73.80;;;;;;5004501;28;20029;-65
2022/06/23 11:05:12;;;;;;;6.25;2.40;;;26.70;74.00;;;;;;4948682;28;20100;-66
2022/06/23 11:08:21;;;;;;;4.65;2.25;;;26.60;76.10;;;;;;5005168;28;20097;-65
2022/06/23 11:11:32;;;;;;;8.60;3.75;;;26.70;75.10;;;;;;5004855;28;20022;-65
2022/06/23 11:14:30;;;;;;;10.27;3.55;;;26.70;73.50;;;;;;4981340;28;20104;-65
2022/06/23 11:17:27;;;;;;;;;;;26.50;74.00;;;;;;5005531;28;20275;-65
2022/06/23 11:20:07;;;;;;;4.40;2.60;;;26.60;75.80;;;;;;5003715;28;20215;-65
2022/06/23 11:22:44;;;;;;;6.40;2.30;;;26.90;76.00;;;;;;5005001;28;20029;-65
2022/06/23 11:25:13;;;;;;;6.10;2.13;;;27.00;73.10;;;;;;4988549;28;20030;-65
2022/06/23 11:28:04;;;;;;;7.78;2.40;;;27.00;73.20;;;;;;5004562;28;20037;-65
2022/06/23 11:30:58;;;;;;;6.43;2.33;;;26.90;73.70;;;;;;4989215;28;20022;-66
2022/06/23 11:33:44;;;;;;;4.78;1.80;;;26.90;73.70;;;;;;5003547;28;20030;-65
2022/06/23 11:36:31;;;;;;;4.68;1.60;;;26.80;74.10;;;;;;5004972;28;20321;-65
2022/06/23 11:39:34;;;;;;;6.32;2.30;;;26.80;75.10;;;;;;4989630;28;20034;-65
2022/06/23 11:42:16;;;;;;;4.82;2.00;;;26.90;75.00;;;;;;5002399;28;20022;-65
2022/06/23 11:45:00;;;;;;;7.78;2.75;;;27.00;72.60;;;;;;5018895;28;20393;-71
2022/06/23 11:47:35;;;;;;;2.92;1.85;;;27.10;71.10;;;;;;5002555;28;20022;-71
2022/06/23 11:50:35;;;;;;;3.95;2.10;;;27.10;72.60;;;;;;5002800;28;20019;-71
2022/06/23 11:53:22;;;;;;;3.97;1.67;;;27.20;73.10;;;;;;5004076;28;20018;-70
2022/06/23 11:56:21;;;;;;;7.57;1.92;;;27.40;72.70;;;;;;5007789;28;20077;-71
2022/06/23 11:59:13;;;;;;;4.15;1.90;;;27.50;72.70;;;;;;4990934;28;20213;-71
2022/06/23 12:01:39;;;;;;;9.13;4.22;;;27.50;70.70;;;;;;4983944;28;20362;-69
2022/06/23 12:04:33;;;;;;;9.10;2.88;;;27.40;70.70;;;;;;4984453;28;20038;-75
2022/06/23 12:07:27;;;;;;;11.98;2.28;;;27.40;73.80;;;;;;4983687;28;20034;-76
2022/06/23 12:10:16;;;;;;;7.20;2.28;;;27.50;72.70;;;;;;4969874;28;20039;-70
2022/06/23 12:12:44;;;;;;;5.03;1.50;;;27.80;70.20;;;;;;4984729;28;20026;-71
2022/06/23 12:15:10;;;;;;;9.13;1.77;;;28.00;69.10;;;;;;4986589;28;20026;-71
2022/06/23 12:17:39;;;;;;;5.68;2.20;;;28.20;68.10;;;;;;4986704;28;20022;-73
2022/06/23 12:20:32;;;;;;;4.70;1.55;;;28.30;68.40;;;;;;4987002;28;20030;-71
2022/06/23 12:23:24;;;;;;;3.40;1.40;;;28.50;65.50;;;;;;5003291;28;20034;-71
2022/06/23 12:25:57;;;;;;;6.07;1.80;;;28.80;63.00;;;;;;4983358;28;20027;-71
2022/06/23 12:28:38;;;;;;;8.10;1.70;;;28.90;63.70;;;;;;5001795;28;20026;-70
2022/06/23 12:31:21;;;;;;;2.45;1.50;;;29.00;63.70;;;;;;5002594;28;20030;-69
2022/06/23 12:34:16;;;;;;;5.45;1.65;;;29.20;62.90;;;;;;5000915;28;20025;-69
2022/06/23 12:37:33;;;;;;;5.78;2.10;;;29.40;63.00;;;;;;5018337;28;20026;-70
2022/06/23 12:40:31;;;;;;;5.78;1.98;;;29.50;61.90;;;;;;5016596;28;20372;-71
2022/06/23 12:43:37;;;;;;;9.05;2.22;;;29.70;63.20;;;;;;4998256;28;20270;-72
2022/06/23 12:46:30;;;;;;;4.45;1.83;;;29.90;62.60;;;;;;4989001;28;20030;-70
2022/06/23 12:49:22;;;;;;;6.95;3.00;;;30.00;62.10;;;;;;4968603;28;20099;-69
2022/06/23 12:52:17;;;;;;;5.78;3.00;;;30.20;61.10;;;;;;4955096;28;20086;-68
2022/06/23 12:55:18;;;;;;;4.10;1.90;;;30.30;60.60;;;;;;4967367;28;20031;-68
2022/06/23 12:58:18;;;;;;;13.45;2.55;;;30.50;60.50;;;;;;4964345;28;20329;-67
2022/06/23 13:01:02;;;;;;;5.30;2.05;;;30.70;63.30;;;;;;4983572;28;20034;-68
2022/06/23 13:04:11;;;;;;;7.55;2.25;;;30.80;62.40;;;;;;4982777;28;20019;-68
2022/06/23 13:06:55;;;;;;;5.20;1.83;;;30.80;59.90;;;;;;4968370;28;20045;-68
2022/06/23 13:09:46;;;;;;;6.22;1.70;;;30.50;58.90;;;;;;4967638;28;20221;-67
2022/06/23 13:12:18;;;;;;;6.03;2.28;;;30.10;59.30;;;;;;4983382;28;20348;-68
2022/06/23 13:14:58;;;;;;;4.47;2.03;;;29.90;61.00;;;;;;4997933;28;20056;-67
2022/06/23 13:17:58;;;;;;;5.60;2.03;;;29.90;63.40;;;;;;4986888;28;20237;-67
2022/06/23 13:20:48;;;;;;;3.67;2.03;;;30.00;61.80;;;;;;5003061;28;20096;-67
2022/06/23 13:23:19;;;;;;;6.68;2.30;;;30.00;59.30;;;;;;5002605;28;20034;-68
2022/06/23 13:25:54;;;;;;;2.95;1.63;;;29.70;68.60;;;;;;4985480;28;20072;-68
2022/06/23 13:28:36;;;;;;;4.90;2.25;;;29.50;60.70;;;;;;4969908;28;20072;-67
2022/06/23 13:31:32;;;;;;;5.07;1.63;;;29.50;65.60;;;;;;4978944;28;20262;-67
2022/06/23 13:34:05;;;;;;;5.93;2.28;;;29.70;62.10;;;;;;4972319;28;20022;-67
2022/06/23 13:36:48;;;;;;;4.75;2.05;;;30.20;60.00;;;;;;4969738;28;20037;-68
2022/06/23 13:39:28;;;;;;;3.53;2.20;;;30.70;60.90;;;;;;4984815;28;20065;-67
2022/06/23 13:42:12;;;;;;;8.93;2.20;;;31.00;64.30;;;;;;5001169;28;20237;-67
2022/06/23 13:44:55;;;;;;;2.95;1.90;;;31.00;57.20;;;;;;5002228;28;20101;-67
2022/06/23 13:47:59;;;;;;;4.13;1.85;;;30.90;58.80;;;;;;4987402;28;20325;-67
2022/06/23 13:50:52;;;;;;;4.13;1.88;;;30.90;58.10;;;;;;4958900;28;20034;-67
2022/06/23 13:53:58;;;;;;;3.40;1.90;;;30.60;56.80;;;;;;4976635;28;20038;-67
2022/06/23 13:56:26;;;;;;;5.30;1.98;;;30.50;57.50;;;;;;4987306;28;20093;-67
2022/06/23 13:59:08;;;;;;;6.50;2.00;;;30.20;57.20;;;;;;5001110;28;20026;-67
2022/06/23 14:01:54;;;;;;;10.63;2.40;;;30.00;57.30;;;;;;4996721;28;20033;-67
2022/06/23 14:04:33;;;;;;;2.60;1.70;;;29.70;58.30;;;;;;4981742;28;20050;-67
2022/06/23 14:07:07;;;;;;;6.47;2.83;;;29.50;59.10;;;;;;4983118;28;20105;-67
2022/06/23 14:09:42;;;;;;;3.03;2.10;;;29.30;60.00;;;;;;4981605;28;20046;-68
2022/06/23 14:12:21;;;;;;;4.95;2.50;;;29.20;61.60;;;;;;4981622;28;20027;-67
2022/06/23 14:15:12;;;;;;;4.75;2.40;;;29.00;61.10;;;;;;4995843;28;20027;-67
2022/06/23 14:18:04;;;;;;;4.18;2.10;;;28.90;61.80;;;;;;4986589;28;20023;-68
2022/06/23 14:20:32;;;;;;;4.85;2.30;;;28.80;62.80;;;;;;5015515;28;20082;-67